sensor_id;sensor_type;location;lat;lon;timestamp;P1;durP1;ratioP1;P2;durP2;ratioP2
3757;SDS011;1894;51.038;13.692;2022-07-29T00:01:00;6.83;;;2.30;;
3757;SDS011;1894;51.038;13.692;2022-07-29T00:03:27;6.63;;;2.40;;
3757;SDS011;1894;51.038;13.692;2022-07-29T00:05:55;5.77;;;2.07;;
3757;SDS011;1894;51.038;13.692;2022-07-29T00:08:22;2.43;;;1.70;;
3757;SDS011;1894;51.038;13.692;2022-07-29T00:10:49;5.57;;;2.23;;
3757;SDS011;1894;51.038;13.692;2022-07-29T00:13:16;4.87;;;3.10;;
3757;SDS011;1894;51.038;13.692;2022-07-29T00:15:57;5.77;;;2.90;;
3757;SDS011;1894;51.038;13.692;2022-07-29T00:18:30;5.63;;;2.20;;
3757;SDS011;1894;51.038;13.692;2022-07-29T00:20:57;7.90;;;2.50;;
3757;SDS011;1894;51.038;13.692;2022-07-29T00:23:24;7.40;;;3.03;;
3757;SDS011;1894;51.038;13.692;2022-07-29T00:25:51;28.27;;;3.10;;
3757;SDS011;1894;51.038;13.692;2022-07-29T00:28:18;5.20;;;2.90;;
3757;SDS011;1894;51.038;13.692;2022-07-29T00:30:45;7.07;;;2.10;;
3757;SDS011;1894;51.038;13.692;2022-07-29T00:33:12;7.50;;;2.70;;
3757;SDS011;1894;51.038;13.692;2022-07-29T00:35:39;8.77;;;2.50;;
3757;SDS011;1894;51.038;13.692;2022-07-29T00:38:13;8.83;;;2.50;;
3757;SDS011;1894;51.038;13.692;2022-07-29T00:40:44;9.17;;;2.30;;
3757;SDS011;1894;51.038;13.692;2022-07-29T00:43:13;5.90;;;2.10;;
3757;SDS011;1894;51.038;13.692;2022-07-29T00:45:41;3.63;;;2.03;;
3757;SDS011;1894;51.038;13.692;2022-07-29T00:48:08;5.67;;;2.70;;
3757;SDS011;1894;51.038;13.692;2022-07-29T00:50:36;7.93;;;2.30;;
3757;SDS011;1894;51.038;13.692;2022-07-29T00:53:05;5.03;;;2.33;;
3757;SDS011;1894;51.038;13.692;2022-07-29T00:55:33;15.60;;;2.80;;
3757;SDS011;1894;51.038;13.692;2022-07-29T00:58:00;9.67;;;3.10;;
3757;SDS011;1894;51.038;13.692;2022-07-29T01:00:29;7.13;;;2.97;;
3757;SDS011;1894;51.038;13.692;2022-07-29T01:02:56;7.17;;;2.50;;
3757;SDS011;1894;51.038;13.692;2022-07-29T01:05:24;11.90;;;2.43;;
3757;SDS011;1894;51.038;13.692;2022-07-29T01:08:14;4.40;;;2.10;;
3757;SDS011;1894;51.038;13.692;2022-07-29T01:10:42;4.10;;;2.30;;
3757;SDS011;1894;51.038;13.692;2022-07-29T01:13:10;8.33;;;2.20;;
3757;SDS011;1894;51.038;13.692;2022-07-29T01:15:41;10.30;;;3.03;;
3757;SDS011;1894;51.038;13.692;2022-07-29T01:18:20;6.37;;;2.57;;
3757;SDS011;1894;51.038;13.692;2022-07-29T01:29:16;5.00;;;2.57;;
3757;SDS011;1894;51.038;13.692;2022-07-29T01:31:58;9.43;;;2.30;;
3757;SDS011;1894;51.038;13.692;2022-07-29T01:37:22;4.90;;;2.80;;
3757;SDS011;1894;51.038;13.692;2022-07-29T01:40:16;9.30;;;1.97;;
3757;SDS011;1894;51.038;13.692;2022-07-29T01:43:10;5.47;;;2.53;;
3757;SDS011;1894;51.038;13.692;2022-07-29T01:45:41;3.63;;;2.37;;
3757;SDS011;1894;51.038;13.692;2022-07-29T01:48:13;5.20;;;2.30;;
3757;SDS011;1894;51.038;13.692;2022-07-29T01:50:48;6.10;;;2.50;;
3757;SDS011;1894;51.038;13.692;2022-07-29T01:53:33;7.07;;;2.30;;
3757;SDS011;1894;51.038;13.692;2022-07-29T01:56:04;8.93;;;2.50;;
3757;SDS011;1894;51.038;13.692;2022-07-29T01:58:35;6.40;;;2.90;;
3757;SDS011;1894;51.038;13.692;2022-07-29T02:01:06;3.13;;;2.70;;
3757;SDS011;1894;51.038;13.692;2022-07-29T02:03:36;10.00;;;2.73;;
3757;SDS011;1894;51.038;13.692;2022-07-29T02:06:05;6.70;;;2.83;;
3757;SDS011;1894;51.038;13.692;2022-07-29T02:08:33;6.70;;;2.30;;
3757;SDS011;1894;51.038;13.692;2022-07-29T02:11:02;6.43;;;3.03;;
3757;SDS011;1894;51.038;13.692;2022-07-29T02:13:31;6.00;;;2.97;;
3757;SDS011;1894;51.038;13.692;2022-07-29T02:16:02;9.00;;;2.80;;
3757;SDS011;1894;51.038;13.692;2022-07-29T02:18:32;7.67;;;2.90;;
3757;SDS011;1894;51.038;13.692;2022-07-29T02:21:01;8.43;;;3.80;;
3757;SDS011;1894;51.038;13.692;2022-07-29T02:23:30;10.13;;;3.40;;
3757;SDS011;1894;51.038;13.692;2022-07-29T02:26:17;10.13;;;3.00;;
3757;SDS011;1894;51.038;13.692;2022-07-29T02:28:47;14.13;;;3.90;;
3757;SDS011;1894;51.038;13.692;2022-07-29T02:31:15;5.87;;;3.50;;
3757;SDS011;1894;51.038;13.692;2022-07-29T02:33:46;9.50;;;3.67;;
3757;SDS011;1894;51.038;13.692;2022-07-29T02:36:14;13.03;;;4.27;;
3757;SDS011;1894;51.038;13.692;2022-07-29T02:38:42;9.63;;;3.83;;
3757;SDS011;1894;51.038;13.692;2022-07-29T02:41:20;10.77;;;4.27;;
3757;SDS011;1894;51.038;13.692;2022-07-29T02:43:53;9.53;;;3.77;;
3757;SDS011;1894;51.038;13.692;2022-07-29T02:46:33;9.60;;;5.00;;
3757;SDS011;1894;51.038;13.692;2022-07-29T02:49:09;5.93;;;4.20;;
3757;SDS011;1894;51.038;13.692;2022-07-29T02:51:46;8.20;;;4.13;;
3757;SDS011;1894;51.038;13.692;2022-07-29T02:54:30;11.13;;;4.77;;
3757;SDS011;1894;51.038;13.692;2022-07-29T02:57:11;11.03;;;5.47;;
3757;SDS011;1894;51.038;13.692;2022-07-29T02:59:57;12.80;;;4.03;;
3757;SDS011;1894;51.038;13.692;2022-07-29T03:02:29;9.60;;;4.70;;
3757;SDS011;1894;51.038;13.692;2022-07-29T03:05:03;24.93;;;5.17;;
3757;SDS011;1894;51.038;13.692;2022-07-29T03:07:34;9.97;;;5.10;;
3757;SDS011;1894;51.038;13.692;2022-07-29T03:10:03;12.60;;;5.17;;
3757;SDS011;1894;51.038;13.692;2022-07-29T03:12:39;16.77;;;5.73;;
3757;SDS011;1894;51.038;13.692;2022-07-29T03:15:07;17.83;;;6.50;;
3757;SDS011;1894;51.038;13.692;2022-07-29T03:17:35;12.80;;;5.93;;
3757;SDS011;1894;51.038;13.692;2022-07-29T03:20:04;10.90;;;6.40;;
3757;SDS011;1894;51.038;13.692;2022-07-29T03:22:33;11.50;;;6.80;;
3757;SDS011;1894;51.038;13.692;2022-07-29T03:25:08;13.83;;;8.90;;
3757;SDS011;1894;51.038;13.692;2022-07-29T03:27:39;11.40;;;6.63;;
3757;SDS011;1894;51.038;13.692;2022-07-29T03:30:07;11.00;;;5.60;;
3757;SDS011;1894;51.038;13.692;2022-07-29T03:32:35;10.17;;;6.50;;
3757;SDS011;1894;51.038;13.692;2022-07-29T03:35:03;11.63;;;6.20;;
3757;SDS011;1894;51.038;13.692;2022-07-29T03:37:31;12.10;;;6.43;;
3757;SDS011;1894;51.038;13.692;2022-07-29T03:40:00;11.10;;;7.07;;
3757;SDS011;1894;51.038;13.692;2022-07-29T03:42:30;11.90;;;7.83;;
3757;SDS011;1894;51.038;13.692;2022-07-29T03:45:00;12.60;;;7.07;;
3757;SDS011;1894;51.038;13.692;2022-07-29T03:47:31;11.77;;;8.40;;
3757;SDS011;1894;51.038;13.692;2022-07-29T03:50:16;18.17;;;7.37;;
3757;SDS011;1894;51.038;13.692;2022-07-29T03:52:46;14.67;;;5.90;;
3757;SDS011;1894;51.038;13.692;2022-07-29T03:55:14;10.30;;;6.90;;
3757;SDS011;1894;51.038;13.692;2022-07-29T03:57:42;13.47;;;7.13;;
3757;SDS011;1894;51.038;13.692;2022-07-29T04:00:11;14.67;;;7.40;;
3757;SDS011;1894;51.038;13.692;2022-07-29T04:02:38;9.73;;;6.70;;
3757;SDS011;1894;51.038;13.692;2022-07-29T04:05:11;14.80;;;9.13;;
3757;SDS011;1894;51.038;13.692;2022-07-29T04:07:39;19.07;;;8.20;;
3757;SDS011;1894;51.038;13.692;2022-07-29T04:10:09;16.20;;;8.40;;
3757;SDS011;1894;51.038;13.692;2022-07-29T04:12:36;14.83;;;7.73;;
3757;SDS011;1894;51.038;13.692;2022-07-29T04:15:04;10.77;;;7.80;;
3757;SDS011;1894;51.038;13.692;2022-07-29T04:17:31;15.53;;;9.40;;
3757;SDS011;1894;51.038;13.692;2022-07-29T04:19:58;14.50;;;8.03;;
3757;SDS011;1894;51.038;13.692;2022-07-29T04:22:25;14.00;;;8.10;;
3757;SDS011;1894;51.038;13.692;2022-07-29T04:24:52;20.23;;;9.20;;
3757;SDS011;1894;51.038;13.692;2022-07-29T04:27:19;20.83;;;8.23;;
3757;SDS011;1894;51.038;13.692;2022-07-29T04:29:46;16.43;;;9.57;;
3757;SDS011;1894;51.038;13.692;2022-07-29T04:32:22;15.60;;;8.07;;
3757;SDS011;1894;51.038;13.692;2022-07-29T04:34:49;11.87;;;7.00;;
3757;SDS011;1894;51.038;13.692;2022-07-29T04:37:16;17.50;;;7.80;;
3757;SDS011;1894;51.038;13.692;2022-07-29T04:39:43;11.80;;;6.53;;
3757;SDS011;1894;51.038;13.692;2022-07-29T04:42:10;16.60;;;8.27;;
3757;SDS011;1894;51.038;13.692;2022-07-29T04:44:38;16.50;;;8.40;;
3757;SDS011;1894;51.038;13.692;2022-07-29T04:47:08;13.53;;;8.10;;
3757;SDS011;1894;51.038;13.692;2022-07-29T04:49:38;13.27;;;8.30;;
3757;SDS011;1894;51.038;13.692;2022-07-29T04:52:06;12.10;;;8.37;;
3757;SDS011;1894;51.038;13.692;2022-07-29T04:54:33;14.00;;;8.13;;
3757;SDS011;1894;51.038;13.692;2022-07-29T04:57:00;14.30;;;8.27;;
3757;SDS011;1894;51.038;13.692;2022-07-29T04:59:27;17.90;;;8.80;;
3757;SDS011;1894;51.038;13.692;2022-07-29T05:01:54;15.03;;;7.90;;
3757;SDS011;1894;51.038;13.692;2022-07-29T05:04:21;12.30;;;8.13;;
3757;SDS011;1894;51.038;13.692;2022-07-29T05:06:48;12.23;;;8.87;;
3757;SDS011;1894;51.038;13.692;2022-07-29T05:09:15;14.40;;;10.03;;
3757;SDS011;1894;51.038;13.692;2022-07-29T05:11:42;18.10;;;12.27;;
3757;SDS011;1894;51.038;13.692;2022-07-29T05:14:09;28.47;;;14.77;;
3757;SDS011;1894;51.038;13.692;2022-07-29T05:16:36;23.70;;;18.20;;
3757;SDS011;1894;51.038;13.692;2022-07-29T05:19:03;28.97;;;17.80;;
3757;SDS011;1894;51.038;13.692;2022-07-29T05:21:30;29.33;;;16.93;;
3757;SDS011;1894;51.038;13.692;2022-07-29T05:23:57;29.40;;;19.50;;
3757;SDS011;1894;51.038;13.692;2022-07-29T05:26:24;39.73;;;24.40;;
3757;SDS011;1894;51.038;13.692;2022-07-29T05:28:51;34.90;;;24.17;;
3757;SDS011;1894;51.038;13.692;2022-07-29T05:31:18;37.73;;;22.90;;
3757;SDS011;1894;51.038;13.692;2022-07-29T05:33:45;45.70;;;27.30;;
3757;SDS011;1894;51.038;13.692;2022-07-29T05:36:12;45.23;;;27.57;;
3757;SDS011;1894;51.038;13.692;2022-07-29T05:38:39;51.33;;;31.43;;
3757;SDS011;1894;51.038;13.692;2022-07-29T05:41:06;57.43;;;32.77;;
3757;SDS011;1894;51.038;13.692;2022-07-29T05:43:33;56.60;;;33.10;;
3757;SDS011;1894;51.038;13.692;2022-07-29T05:46:00;54.50;;;36.43;;
3757;SDS011;1894;51.038;13.692;2022-07-29T05:48:27;80.63;;;52.00;;
3757;SDS011;1894;51.038;13.692;2022-07-29T05:50:54;87.37;;;55.67;;
3757;SDS011;1894;51.038;13.692;2022-07-29T05:53:21;91.80;;;54.77;;
3757;SDS011;1894;51.038;13.692;2022-07-29T05:55:48;88.73;;;55.37;;
3757;SDS011;1894;51.038;13.692;2022-07-29T05:58:16;82.83;;;57.37;;
3757;SDS011;1894;51.038;13.692;2022-07-29T06:00:43;82.60;;;56.53;;
3757;SDS011;1894;51.038;13.692;2022-07-29T06:03:11;86.73;;;56.10;;
3757;SDS011;1894;51.038;13.692;2022-07-29T06:05:38;102.83;;;61.23;;
3757;SDS011;1894;51.038;13.692;2022-07-29T06:08:05;120.73;;;82.80;;
3757;SDS011;1894;51.038;13.692;2022-07-29T06:10:37;138.33;;;86.10;;
3757;SDS011;1894;51.038;13.692;2022-07-29T06:13:04;129.97;;;85.27;;
3757;SDS011;1894;51.038;13.692;2022-07-29T06:15:31;133.43;;;83.83;;
3757;SDS011;1894;51.038;13.692;2022-07-29T06:17:58;126.13;;;81.07;;
3757;SDS011;1894;51.038;13.692;2022-07-29T06:20:28;133.00;;;82.80;;
3757;SDS011;1894;51.038;13.692;2022-07-29T06:22:57;127.53;;;84.83;;
3757;SDS011;1894;51.038;13.692;2022-07-29T06:25:24;130.50;;;86.17;;
3757;SDS011;1894;51.038;13.692;2022-07-29T06:27:51;129.93;;;78.83;;
3757;SDS011;1894;51.038;13.692;2022-07-29T06:30:19;120.10;;;78.40;;
3757;SDS011;1894;51.038;13.692;2022-07-29T06:32:46;106.03;;;73.30;;
3757;SDS011;1894;51.038;13.692;2022-07-29T06:35:13;90.70;;;60.33;;
3757;SDS011;1894;51.038;13.692;2022-07-29T06:38:00;96.80;;;59.47;;
3757;SDS011;1894;51.038;13.692;2022-07-29T06:40:50;113.43;;;68.97;;
3757;SDS011;1894;51.038;13.692;2022-07-29T06:43:27;89.90;;;64.20;;
3757;SDS011;1894;51.038;13.692;2022-07-29T06:45:59;97.00;;;60.40;;
3757;SDS011;1894;51.038;13.692;2022-07-29T06:48:27;88.73;;;59.90;;
3757;SDS011;1894;51.038;13.692;2022-07-29T06:50:55;93.70;;;57.47;;
3757;SDS011;1894;51.038;13.692;2022-07-29T06:53:22;82.33;;;49.23;;
3757;SDS011;1894;51.038;13.692;2022-07-29T06:55:49;73.37;;;46.43;;
3757;SDS011;1894;51.038;13.692;2022-07-29T06:58:16;71.73;;;47.57;;
3757;SDS011;1894;51.038;13.692;2022-07-29T07:00:54;77.43;;;51.87;;
3757;SDS011;1894;51.038;13.692;2022-07-29T07:03:22;71.57;;;50.27;;
3757;SDS011;1894;51.038;13.692;2022-07-29T07:05:49;77.57;;;49.47;;
3757;SDS011;1894;51.038;13.692;2022-07-29T07:08:18;73.97;;;47.20;;
3757;SDS011;1894;51.038;13.692;2022-07-29T07:10:46;60.77;;;44.37;;
3757;SDS011;1894;51.038;13.692;2022-07-29T07:13:13;63.37;;;41.23;;
3757;SDS011;1894;51.038;13.692;2022-07-29T07:15:44;65.50;;;42.47;;
3757;SDS011;1894;51.038;13.692;2022-07-29T07:18:14;65.43;;;41.37;;
3757;SDS011;1894;51.038;13.692;2022-07-29T07:20:42;56.07;;;41.30;;
3757;SDS011;1894;51.038;13.692;2022-07-29T07:23:09;60.80;;;41.40;;
3757;SDS011;1894;51.038;13.692;2022-07-29T07:25:36;61.80;;;40.87;;
3757;SDS011;1894;51.038;13.692;2022-07-29T07:28:04;69.50;;;42.87;;
3757;SDS011;1894;51.038;13.692;2022-07-29T07:30:31;78.40;;;52.40;;
3757;SDS011;1894;51.038;13.692;2022-07-29T07:32:59;80.97;;;54.37;;
3757;SDS011;1894;51.038;13.692;2022-07-29T07:35:26;80.30;;;50.93;;
3757;SDS011;1894;51.038;13.692;2022-07-29T07:37:54;73.20;;;50.40;;
3757;SDS011;1894;51.038;13.692;2022-07-29T07:40:22;72.83;;;52.20;;
3757;SDS011;1894;51.038;13.692;2022-07-29T07:42:50;73.20;;;48.93;;
3757;SDS011;1894;51.038;13.692;2022-07-29T07:45:17;94.97;;;56.30;;
3757;SDS011;1894;51.038;13.692;2022-07-29T07:47:44;79.20;;;48.67;;
3757;SDS011;1894;51.038;13.692;2022-07-29T07:50:11;68.17;;;46.70;;
3757;SDS011;1894;51.038;13.692;2022-07-29T07:52:48;72.40;;;46.73;;
3757;SDS011;1894;51.038;13.692;2022-07-29T07:55:16;70.77;;;42.10;;
3757;SDS011;1894;51.038;13.692;2022-07-29T07:57:44;61.20;;;41.87;;
3757;SDS011;1894;51.038;13.692;2022-07-29T08:00:12;71.00;;;44.47;;
3757;SDS011;1894;51.038;13.692;2022-07-29T08:02:40;62.30;;;44.50;;
3757;SDS011;1894;51.038;13.692;2022-07-29T08:05:09;69.07;;;45.30;;
3757;SDS011;1894;51.038;13.692;2022-07-29T08:07:38;57.40;;;40.50;;
3757;SDS011;1894;51.038;13.692;2022-07-29T08:10:05;56.87;;;39.17;;
3757;SDS011;1894;51.038;13.692;2022-07-29T08:12:33;55.70;;;37.33;;
3757;SDS011;1894;51.038;13.692;2022-07-29T08:15:00;54.00;;;37.27;;
3757;SDS011;1894;51.038;13.692;2022-07-29T08:17:27;51.30;;;35.37;;
3757;SDS011;1894;51.038;13.692;2022-07-29T08:19:54;53.23;;;35.80;;
3757;SDS011;1894;51.038;13.692;2022-07-29T08:22:21;55.17;;;37.93;;
3757;SDS011;1894;51.038;13.692;2022-07-29T08:24:48;50.20;;;36.27;;
3757;SDS011;1894;51.038;13.692;2022-07-29T08:27:20;58.07;;;36.20;;
3757;SDS011;1894;51.038;13.692;2022-07-29T08:30:08;53.00;;;34.30;;
3757;SDS011;1894;51.038;13.692;2022-07-29T08:32:36;51.10;;;34.87;;
3757;SDS011;1894;51.038;13.692;2022-07-29T08:35:21;58.77;;;35.27;;
3757;SDS011;1894;51.038;13.692;2022-07-29T08:37:50;52.90;;;33.40;;
3757;SDS011;1894;51.038;13.692;2022-07-29T08:40:17;49.50;;;31.93;;
3757;SDS011;1894;51.038;13.692;2022-07-29T08:42:57;50.73;;;30.50;;
3757;SDS011;1894;51.038;13.692;2022-07-29T08:45:26;50.97;;;31.90;;
3757;SDS011;1894;51.038;13.692;2022-07-29T08:47:56;45.70;;;30.67;;
3757;SDS011;1894;51.038;13.692;2022-07-29T08:50:23;40.20;;;27.37;;
3757;SDS011;1894;51.038;13.692;2022-07-29T08:52:50;41.93;;;29.80;;
3757;SDS011;1894;51.038;13.692;2022-07-29T08:55:24;42.40;;;27.27;;
3757;SDS011;1894;51.038;13.692;2022-07-29T08:57:52;38.90;;;27.00;;
3757;SDS011;1894;51.038;13.692;2022-07-29T09:00:22;39.30;;;26.47;;
3757;SDS011;1894;51.038;13.692;2022-07-29T09:02:54;35.50;;;23.70;;
3757;SDS011;1894;51.038;13.692;2022-07-29T09:05:25;37.17;;;23.63;;
3757;SDS011;1894;51.038;13.692;2022-07-29T09:07:53;29.30;;;22.13;;
3757;SDS011;1894;51.038;13.692;2022-07-29T09:10:21;27.27;;;21.40;;
3757;SDS011;1894;51.038;13.692;2022-07-29T09:12:48;35.33;;;20.00;;
3757;SDS011;1894;51.038;13.692;2022-07-29T09:15:15;32.07;;;19.20;;
3757;SDS011;1894;51.038;13.692;2022-07-29T09:17:44;25.43;;;17.13;;
3757;SDS011;1894;51.038;13.692;2022-07-29T09:20:17;29.67;;;17.60;;
3757;SDS011;1894;51.038;13.692;2022-07-29T09:22:45;28.10;;;16.97;;
3757;SDS011;1894;51.038;13.692;2022-07-29T09:25:31;29.87;;;14.50;;
3757;SDS011;1894;51.038;13.692;2022-07-29T09:28:09;16.90;;;10.43;;
3757;SDS011;1894;51.038;13.692;2022-07-29T09:30:53;22.33;;;10.47;;
3757;SDS011;1894;51.038;13.692;2022-07-29T09:33:23;20.77;;;10.67;;
3757;SDS011;1894;51.038;13.692;2022-07-29T09:36:03;18.67;;;11.27;;
3757;SDS011;1894;51.038;13.692;2022-07-29T09:38:32;19.07;;;9.60;;
3757;SDS011;1894;51.038;13.692;2022-07-29T09:41:00;21.13;;;12.10;;
3757;SDS011;1894;51.038;13.692;2022-07-29T09:43:31;29.20;;;14.63;;
3757;SDS011;1894;51.038;13.692;2022-07-29T09:46:11;22.77;;;13.90;;
3757;SDS011;1894;51.038;13.692;2022-07-29T09:48:39;25.87;;;15.10;;
3757;SDS011;1894;51.038;13.692;2022-07-29T09:51:19;27.27;;;18.07;;
3757;SDS011;1894;51.038;13.692;2022-07-29T09:54:24;28.67;;;16.87;;
3757;SDS011;1894;51.038;13.692;2022-07-29T09:56:54;26.80;;;16.50;;
3757;SDS011;1894;51.038;13.692;2022-07-29T09:59:22;22.10;;;16.83;;
3757;SDS011;1894;51.038;13.692;2022-07-29T10:01:52;30.27;;;18.07;;
3757;SDS011;1894;51.038;13.692;2022-07-29T10:04:21;23.33;;;17.70;;
3757;SDS011;1894;51.038;13.692;2022-07-29T10:06:55;29.30;;;18.57;;
3757;SDS011;1894;51.038;13.692;2022-07-29T10:09:29;31.00;;;20.50;;
3757;SDS011;1894;51.038;13.692;2022-07-29T10:14:37;27.20;;;20.43;;
3757;SDS011;1894;51.038;13.692;2022-07-29T10:17:05;27.60;;;20.63;;
3757;SDS011;1894;51.038;13.692;2022-07-29T10:19:33;25.43;;;18.70;;
3757;SDS011;1894;51.038;13.692;2022-07-29T10:22:03;23.50;;;14.37;;
3757;SDS011;1894;51.038;13.692;2022-07-29T10:24:32;21.30;;;13.27;;
3757;SDS011;1894;51.038;13.692;2022-07-29T10:27:00;16.60;;;13.97;;
3757;SDS011;1894;51.038;13.692;2022-07-29T10:29:28;24.10;;;15.40;;
3757;SDS011;1894;51.038;13.692;2022-07-29T10:34:36;25.97;;;12.97;;
3757;SDS011;1894;51.038;13.692;2022-07-29T10:40:29;16.23;;;11.33;;
3757;SDS011;1894;51.038;13.692;2022-07-29T10:43:36;14.03;;;10.90;;
3757;SDS011;1894;51.038;13.692;2022-07-29T10:46:09;14.27;;;10.30;;
3757;SDS011;1894;51.038;13.692;2022-07-29T10:57:12;12.37;;;9.43;;
3757;SDS011;1894;51.038;13.692;2022-07-29T10:59:40;9.00;;;7.20;;
3757;SDS011;1894;51.038;13.692;2022-07-29T11:05:12;17.57;;;6.47;;
3757;SDS011;1894;51.038;13.692;2022-07-29T11:10:46;12.40;;;6.30;;
3757;SDS011;1894;51.038;13.692;2022-07-29T11:14:00;5.87;;;4.10;;
3757;SDS011;1894;51.038;13.692;2022-07-29T11:16:14;5.03;;;3.67;;
3757;SDS011;1894;51.038;13.692;2022-07-29T11:21:47;5.80;;;2.50;;
3757;SDS011;1894;51.038;13.692;2022-07-29T11:24:30;10.07;;;2.63;;
3757;SDS011;1894;51.038;13.692;2022-07-29T11:27:10;6.63;;;2.37;;
3757;SDS011;1894;51.038;13.692;2022-07-29T11:29:39;4.43;;;2.43;;
3757;SDS011;1894;51.038;13.692;2022-07-29T11:32:15;5.70;;;3.00;;
3757;SDS011;1894;51.038;13.692;2022-07-29T11:34:49;5.63;;;2.43;;
3757;SDS011;1894;51.038;13.692;2022-07-29T11:37:44;2.50;;;2.10;;
3757;SDS011;1894;51.038;13.692;2022-07-29T11:40:23;2.60;;;1.67;;
3757;SDS011;1894;51.038;13.692;2022-07-29T11:42:50;6.53;;;2.00;;
3757;SDS011;1894;51.038;13.692;2022-07-29T11:45:18;7.00;;;2.10;;
3757;SDS011;1894;51.038;13.692;2022-07-29T11:48:15;3.90;;;1.90;;
3757;SDS011;1894;51.038;13.692;2022-07-29T11:50:55;5.07;;;2.10;;
3757;SDS011;1894;51.038;13.692;2022-07-29T11:53:23;8.80;;;2.90;;
3757;SDS011;1894;51.038;13.692;2022-07-29T11:55:54;3.97;;;2.00;;
3757;SDS011;1894;51.038;13.692;2022-07-29T11:58:23;3.60;;;1.80;;
3757;SDS011;1894;51.038;13.692;2022-07-29T12:00:51;4.17;;;2.40;;
3757;SDS011;1894;51.038;13.692;2022-07-29T12:03:25;12.53;;;1.83;;
3757;SDS011;1894;51.038;13.692;2022-07-29T12:05:58;4.93;;;1.70;;
3757;SDS011;1894;51.038;13.692;2022-07-29T12:08:25;3.83;;;1.63;;
3757;SDS011;1894;51.038;13.692;2022-07-29T12:10:54;4.63;;;1.67;;
3757;SDS011;1894;51.038;13.692;2022-07-29T12:13:21;2.17;;;1.97;;
3757;SDS011;1894;51.038;13.692;2022-07-29T12:16:03;6.03;;;2.47;;
3757;SDS011;1894;51.038;13.692;2022-07-29T12:18:30;6.10;;;2.23;;
3757;SDS011;1894;51.038;13.692;2022-07-29T12:21:01;1.80;;;1.70;;
3757;SDS011;1894;51.038;13.692;2022-07-29T12:23:30;2.77;;;1.40;;
3757;SDS011;1894;51.038;13.692;2022-07-29T12:26:00;2.20;;;1.67;;
3757;SDS011;1894;51.038;13.692;2022-07-29T12:28:38;2.40;;;1.50;;
3757;SDS011;1894;51.038;13.692;2022-07-29T12:31:08;2.93;;;1.60;;
3757;SDS011;1894;51.038;13.692;2022-07-29T12:34:00;3.63;;;1.53;;
3757;SDS011;1894;51.038;13.692;2022-07-29T12:36:27;4.20;;;1.60;;
3757;SDS011;1894;51.038;13.692;2022-07-29T12:38:54;2.07;;;1.93;;
3757;SDS011;1894;51.038;13.692;2022-07-29T12:41:22;2.03;;;1.57;;
3757;SDS011;1894;51.038;13.692;2022-07-29T12:43:52;1.80;;;1.70;;
3757;SDS011;1894;51.038;13.692;2022-07-29T12:46:20;4.90;;;2.27;;
3757;SDS011;1894;51.038;13.692;2022-07-29T12:48:50;3.17;;;1.83;;
3757;SDS011;1894;51.038;13.692;2022-07-29T12:51:28;7.10;;;2.30;;
3757;SDS011;1894;51.038;13.692;2022-07-29T12:54:03;3.70;;;2.23;;
3757;SDS011;1894;51.038;13.692;2022-07-29T12:56:30;16.03;;;2.53;;
3757;SDS011;1894;51.038;13.692;2022-07-29T13:01:42;5.20;;;2.80;;
3757;SDS011;1894;51.038;13.692;2022-07-29T13:04:10;8.00;;;2.67;;
3757;SDS011;1894;51.038;13.692;2022-07-29T13:06:49;3.53;;;2.10;;
3757;SDS011;1894;51.038;13.692;2022-07-29T13:09:35;5.43;;;2.20;;
3757;SDS011;1894;51.038;13.692;2022-07-29T13:12:08;5.60;;;1.93;;
3757;SDS011;1894;51.038;13.692;2022-07-29T13:17:09;9.70;;;3.10;;
3757;SDS011;1894;51.038;13.692;2022-07-29T13:22:16;3.17;;;1.70;;
3757;SDS011;1894;51.038;13.692;2022-07-29T13:27:20;9.73;;;2.00;;
3757;SDS011;1894;51.038;13.692;2022-07-29T13:29:52;6.60;;;1.97;;
3757;SDS011;1894;51.038;13.692;2022-07-29T13:32:23;14.03;;;1.87;;
3757;SDS011;1894;51.038;13.692;2022-07-29T13:34:54;4.50;;;1.33;;
3757;SDS011;1894;51.038;13.692;2022-07-29T13:37:23;2.00;;;1.60;;
3757;SDS011;1894;51.038;13.692;2022-07-29T13:39:50;6.43;;;2.20;;
3757;SDS011;1894;51.038;13.692;2022-07-29T13:42:19;2.60;;;1.30;;
3757;SDS011;1894;51.038;13.692;2022-07-29T13:44:46;2.80;;;2.10;;
3757;SDS011;1894;51.038;13.692;2022-07-29T13:47:14;4.60;;;1.90;;
3757;SDS011;1894;51.038;13.692;2022-07-29T13:49:42;3.80;;;1.70;;
3757;SDS011;1894;51.038;13.692;2022-07-29T13:52:09;2.57;;;1.60;;
3757;SDS011;1894;51.038;13.692;2022-07-29T13:54:37;3.23;;;1.87;;
3757;SDS011;1894;51.038;13.692;2022-07-29T13:57:08;1.97;;;1.50;;
3757;SDS011;1894;51.038;13.692;2022-07-29T13:59:37;6.33;;;1.77;;
3757;SDS011;1894;51.038;13.692;2022-07-29T14:02:15;5.23;;;1.77;;
3757;SDS011;1894;51.038;13.692;2022-07-29T14:04:42;3.13;;;1.50;;
3757;SDS011;1894;51.038;13.692;2022-07-29T14:07:09;1.83;;;1.27;;
3757;SDS011;1894;51.038;13.692;2022-07-29T14:09:41;6.40;;;1.80;;
3757;SDS011;1894;51.038;13.692;2022-07-29T14:12:08;1.20;;;1.10;;
3757;SDS011;1894;51.038;13.692;2022-07-29T14:14:36;5.03;;;1.40;;
3757;SDS011;1894;51.038;13.692;2022-07-29T14:17:03;2.60;;;1.40;;
3757;SDS011;1894;51.038;13.692;2022-07-29T14:19:33;2.40;;;1.37;;
3757;SDS011;1894;51.038;13.692;2022-07-29T14:22:05;1.80;;;1.57;;
3757;SDS011;1894;51.038;13.692;2022-07-29T14:24:36;2.93;;;1.60;;
3757;SDS011;1894;51.038;13.692;2022-07-29T14:27:04;2.13;;;1.70;;
3757;SDS011;1894;51.038;13.692;2022-07-29T14:29:32;5.13;;;1.50;;
3757;SDS011;1894;51.038;13.692;2022-07-29T14:32:07;2.00;;;1.57;;
3757;SDS011;1894;51.038;13.692;2022-07-29T14:34:36;2.73;;;1.67;;
3757;SDS011;1894;51.038;13.692;2022-07-29T14:37:04;3.57;;;1.90;;
3757;SDS011;1894;51.038;13.692;2022-07-29T14:39:32;4.10;;;1.70;;
3757;SDS011;1894;51.038;13.692;2022-07-29T14:42:08;4.40;;;2.03;;
3757;SDS011;1894;51.038;13.692;2022-07-29T14:44:37;3.10;;;1.93;;
3757;SDS011;1894;51.038;13.692;2022-07-29T14:47:04;4.70;;;2.13;;
3757;SDS011;1894;51.038;13.692;2022-07-29T14:49:33;7.23;;;2.00;;
3757;SDS011;1894;51.038;13.692;2022-07-29T14:52:01;3.43;;;1.97;;
3757;SDS011;1894;51.038;13.692;2022-07-29T14:54:28;2.50;;;2.30;;
3757;SDS011;1894;51.038;13.692;2022-07-29T14:56:55;2.27;;;2.07;;
3757;SDS011;1894;51.038;13.692;2022-07-29T14:59:24;6.90;;;2.33;;
3757;SDS011;1894;51.038;13.692;2022-07-29T15:01:51;3.87;;;1.97;;
3757;SDS011;1894;51.038;13.692;2022-07-29T15:04:19;3.77;;;1.93;;
3757;SDS011;1894;51.038;13.692;2022-07-29T15:06:46;2.30;;;1.87;;
3757;SDS011;1894;51.038;13.692;2022-07-29T15:09:14;3.93;;;2.20;;
3757;SDS011;1894;51.038;13.692;2022-07-29T15:11:41;4.40;;;2.23;;
3757;SDS011;1894;51.038;13.692;2022-07-29T15:14:08;3.47;;;2.30;;
3757;SDS011;1894;51.038;13.692;2022-07-29T15:16:35;1.87;;;1.77;;
3757;SDS011;1894;51.038;13.692;2022-07-29T15:19:03;2.50;;;2.23;;
3757;SDS011;1894;51.038;13.692;2022-07-29T15:21:31;3.00;;;1.83;;
3757;SDS011;1894;51.038;13.692;2022-07-29T15:23:58;3.40;;;2.00;;
3757;SDS011;1894;51.038;13.692;2022-07-29T15:26:25;3.77;;;1.50;;
3757;SDS011;1894;51.038;13.692;2022-07-29T15:28:52;3.33;;;1.37;;
3757;SDS011;1894;51.038;13.692;2022-07-29T15:31:19;5.53;;;1.70;;
3757;SDS011;1894;51.038;13.692;2022-07-29T15:33:46;6.33;;;2.20;;
3757;SDS011;1894;51.038;13.692;2022-07-29T15:36:14;1.73;;;1.60;;
3757;SDS011;1894;51.038;13.692;2022-07-29T15:39:01;14.30;;;1.70;;
3757;SDS011;1894;51.038;13.692;2022-07-29T15:41:28;10.03;;;6.70;;
3757;SDS011;1894;51.038;13.692;2022-07-29T15:43:55;7.40;;;1.90;;
3757;SDS011;1894;51.038;13.692;2022-07-29T15:46:22;5.47;;;3.10;;
3757;SDS011;1894;51.038;13.692;2022-07-29T15:49:08;2.63;;;2.40;;
3757;SDS011;1894;51.038;13.692;2022-07-29T15:51:35;5.67;;;2.97;;
3757;SDS011;1894;51.038;13.692;2022-07-29T15:54:02;6.30;;;2.93;;
3757;SDS011;1894;51.038;13.692;2022-07-29T15:56:30;3.50;;;2.27;;